sensor_id;sensor_type;location;lat;lon;timestamp;P1;durP1;ratioP1;P2;durP2;ratioP2
8735;SDS011;4404;49.308;12.178;2023-07-31T05:33:17;0.80;;;0.80;;
8735;SDS011;4404;49.308;12.178;2023-07-31T05:35:19;0.80;;;0.80;;
8735;SDS011;4404;49.308;12.178;2023-07-31T05:37:21;0.80;;;0.80;;
8735;SDS011;4404;49.308;12.178;2023-07-31T05:39:23;0.90;;;0.90;;
8735;SDS011;4404;49.308;12.178;2023-07-31T05:41:25;0.80;;;0.80;;
8735;SDS011;4404;49.308;12.178;2023-07-31T05:43:27;0.80;;;0.80;;
8735;SDS011;4404;49.308;12.178;2023-07-31T05:45:29;0.80;;;0.80;;
8735;SDS011;4404;49.308;12.178;2023-07-31T05:47:31;0.90;;;0.90;;
8735;SDS011;4404;49.308;12.178;2023-07-31T05:49:35;0.80;;;0.80;;
8735;SDS011;4404;49.308;12.178;2023-07-31T05:51:37;0.80;;;0.80;;
8735;SDS011;4404;49.308;12.178;2023-07-31T05:53:39;0.80;;;0.80;;
8735;SDS011;4404;49.308;12.178;2023-07-31T05:55:41;0.70;;;0.70;;
8735;SDS011;4404;49.308;12.178;2023-07-31T05:57:44;0.73;;;0.73;;
8735;SDS011;4404;49.308;12.178;2023-07-31T05:59:46;0.70;;;0.70;;
8735;SDS011;4404;49.308;12.178;2023-07-31T06:01:48;0.70;;;0.70;;
8735;SDS011;4404;49.308;12.178;2023-07-31T06:03:50;0.80;;;0.80;;
8735;SDS011;4404;49.308;12.178;2023-07-31T06:05:54;0.90;;;0.90;;
8735;SDS011;4404;49.308;12.178;2023-07-31T06:07:56;0.70;;;0.70;;
8735;SDS011;4404;49.308;12.178;2023-07-31T06:09:58;0.80;;;0.80;;
8735;SDS011;4404;49.308;12.178;2023-07-31T06:12:05;0.80;;;0.80;;
8735;SDS011;4404;49.308;12.178;2023-07-31T06:14:07;0.90;;;0.90;;
8735;SDS011;4404;49.308;12.178;2023-07-31T06:16:09;0.80;;;0.80;;
8735;SDS011;4404;49.308;12.178;2023-07-31T06:18:11;0.80;;;0.80;;
8735;SDS011;4404;49.308;12.178;2023-07-31T06:20:14;0.80;;;0.80;;
8735;SDS011;4404;49.308;12.178;2023-07-31T06:22:17;0.80;;;0.80;;
8735;SDS011;4404;49.308;12.178;2023-07-31T06:24:19;0.77;;;0.77;;
8735;SDS011;4404;49.308;12.178;2023-07-31T06:26:22;0.73;;;0.73;;
8735;SDS011;4404;49.308;12.178;2023-07-31T06:28:27;0.77;;;0.77;;
8735;SDS011;4404;49.308;12.178;2023-07-31T06:30:30;0.80;;;0.80;;
8735;SDS011;4404;49.308;12.178;2023-07-31T06:32:32;0.90;;;0.90;;
8735;SDS011;4404;49.308;12.178;2023-07-31T06:34:34;0.83;;;0.83;;
8735;SDS011;4404;49.308;12.178;2023-07-31T06:36:36;0.80;;;0.80;;
8735;SDS011;4404;49.308;12.178;2023-07-31T06:38:40;0.90;;;0.90;;
8735;SDS011;4404;49.308;12.178;2023-07-31T06:40:42;0.90;;;0.90;;
8735;SDS011;4404;49.308;12.178;2023-07-31T06:42:44;0.90;;;0.90;;
8735;SDS011;4404;49.308;12.178;2023-07-31T06:44:46;0.90;;;0.90;;
8735;SDS011;4404;49.308;12.178;2023-07-31T06:46:48;0.80;;;0.80;;
8735;SDS011;4404;49.308;12.178;2023-07-31T06:48:50;0.83;;;0.83;;
8735;SDS011;4404;49.308;12.178;2023-07-31T06:50:52;0.80;;;0.80;;
8735;SDS011;4404;49.308;12.178;2023-07-31T06:52:53;0.80;;;0.80;;
8735;SDS011;4404;49.308;12.178;2023-07-31T06:55:03;0.70;;;0.70;;
8735;SDS011;4404;49.308;12.178;2023-07-31T06:57:19;0.80;;;0.80;;
8735;SDS011;4404;49.308;12.178;2023-07-31T06:59:21;0.80;;;0.80;;
8735;SDS011;4404;49.308;12.178;2023-07-31T07:01:23;1.00;;;0.90;;
8735;SDS011;4404;49.308;12.178;2023-07-31T07:03:25;0.80;;;0.80;;
8735;SDS011;4404;49.308;12.178;2023-07-31T07:05:28;1.13;;;1.07;;
8735;SDS011;4404;49.308;12.178;2023-07-31T07:07:31;2.53;;;2.33;;
8735;SDS011;4404;49.308;12.178;2023-07-31T07:09:34;1.97;;;1.83;;
8735;SDS011;4404;49.308;12.178;2023-07-31T07:11:38;1.10;;;1.00;;
8735;SDS011;4404;49.308;12.178;2023-07-31T07:13:40;1.20;;;1.10;;
8735;SDS011;4404;49.308;12.178;2023-07-31T07:15:42;1.00;;;1.00;;
8735;SDS011;4404;49.308;12.178;2023-07-31T07:17:44;0.90;;;0.90;;
8735;SDS011;4404;49.308;12.178;2023-07-31T07:19:47;1.23;;;1.13;;
8735;SDS011;4404;49.308;12.178;2023-07-31T07:21:49;0.90;;;0.90;;
8735;SDS011;4404;49.308;12.178;2023-07-31T07:23:51;0.87;;;0.87;;
8735;SDS011;4404;49.308;12.178;2023-07-31T07:25:52;0.87;;;0.87;;
8735;SDS011;4404;49.308;12.178;2023-07-31T07:27:56;0.83;;;0.83;;
8735;SDS011;4404;49.308;12.178;2023-07-31T07:29:58;0.90;;;0.90;;
8735;SDS011;4404;49.308;12.178;2023-07-31T07:32:01;0.90;;;0.90;;
8735;SDS011;4404;49.308;12.178;2023-07-31T07:34:03;0.90;;;0.90;;
8735;SDS011;4404;49.308;12.178;2023-07-31T07:36:05;1.30;;;1.20;;
8735;SDS011;4404;49.308;12.178;2023-07-31T07:38:09;0.97;;;0.93;;
8735;SDS011;4404;49.308;12.178;2023-07-31T07:40:11;1.30;;;1.20;;
8735;SDS011;4404;49.308;12.178;2023-07-31T07:42:13;0.80;;;0.80;;
8735;SDS011;4404;49.308;12.178;2023-07-31T07:44:17;1.10;;;1.00;;
8735;SDS011;4404;49.308;12.178;2023-07-31T07:46:20;1.10;;;1.00;;
8735;SDS011;4404;49.308;12.178;2023-07-31T07:48:23;1.20;;;1.10;;
8735;SDS011;4404;49.308;12.178;2023-07-31T07:50:25;1.10;;;1.00;;
8735;SDS011;4404;49.308;12.178;2023-07-31T07:52:27;0.97;;;0.97;;
8735;SDS011;4404;49.308;12.178;2023-07-31T07:54:30;1.47;;;1.30;;
8735;SDS011;4404;49.308;12.178;2023-07-31T07:56:32;1.20;;;1.10;;
8735;SDS011;4404;49.308;12.178;2023-07-31T07:58:36;1.30;;;1.20;;
8735;SDS011;4404;49.308;12.178;2023-07-31T08:00:38;1.10;;;1.00;;
8735;SDS011;4404;49.308;12.178;2023-07-31T08:02:40;1.67;;;1.40;;
8735;SDS011;4404;49.308;12.178;2023-07-31T08:04:42;1.40;;;1.30;;
8735;SDS011;4404;49.308;12.178;2023-07-31T08:06:45;1.73;;;1.40;;
8735;SDS011;4404;49.308;12.178;2023-07-31T08:08:47;1.47;;;1.30;;
8735;SDS011;4404;49.308;12.178;2023-07-31T08:10:49;1.37;;;1.20;;
8735;SDS011;4404;49.308;12.178;2023-07-31T08:12:51;1.50;;;1.30;;
8735;SDS011;4404;49.308;12.178;2023-07-31T08:14:53;1.20;;;1.10;;
8735;SDS011;4404;49.308;12.178;2023-07-31T08:16:56;1.50;;;1.20;;
8735;SDS011;4404;49.308;12.178;2023-07-31T08:18:58;1.10;;;1.00;;
8735;SDS011;4404;49.308;12.178;2023-07-31T08:21:01;1.00;;;0.97;;
8735;SDS011;4404;49.308;12.178;2023-07-31T08:23:03;1.03;;;0.97;;
8735;SDS011;4404;49.308;12.178;2023-07-31T08:25:06;1.00;;;1.00;;
8735;SDS011;4404;49.308;12.178;2023-07-31T08:27:09;1.23;;;1.07;;
8735;SDS011;4404;49.308;12.178;2023-07-31T08:29:11;0.90;;;0.90;;
8735;SDS011;4404;49.308;12.178;2023-07-31T08:31:12;1.00;;;1.00;;
8735;SDS011;4404;49.308;12.178;2023-07-31T08:33:16;1.40;;;1.30;;
8735;SDS011;4404;49.308;12.178;2023-07-31T08:35:18;1.20;;;1.10;;
8735;SDS011;4404;49.308;12.178;2023-07-31T08:37:20;1.33;;;1.10;;
8735;SDS011;4404;49.308;12.178;2023-07-31T08:39:22;1.73;;;1.37;;
8735;SDS011;4404;49.308;12.178;2023-07-31T08:41:25;1.80;;;1.23;;
8735;SDS011;4404;49.308;12.178;2023-07-31T08:43:27;1.93;;;1.33;;
8735;SDS011;4404;49.308;12.178;2023-07-31T08:45:30;1.43;;;1.17;;
8735;SDS011;4404;49.308;12.178;2023-07-31T08:47:33;1.20;;;1.10;;
8735;SDS011;4404;49.308;12.178;2023-07-31T08:49:37;1.30;;;1.17;;
8735;SDS011;4404;49.308;12.178;2023-07-31T08:51:41;1.30;;;1.20;;
8735;SDS011;4404;49.308;12.178;2023-07-31T08:53:43;1.43;;;1.30;;
8735;SDS011;4404;49.308;12.178;2023-07-31T08:55:46;1.90;;;1.43;;
8735;SDS011;4404;49.308;12.178;2023-07-31T08:57:50;1.73;;;1.30;;
8735;SDS011;4404;49.308;12.178;2023-07-31T08:59:53;1.60;;;1.30;;
8735;SDS011;4404;49.308;12.178;2023-07-31T09:01:57;1.20;;;1.07;;
8735;SDS011;4404;49.308;12.178;2023-07-31T09:04:06;1.60;;;1.23;;
8735;SDS011;4404;49.308;12.178;2023-07-31T09:06:12;1.67;;;1.30;;
8735;SDS011;4404;49.308;12.178;2023-07-31T09:08:18;1.43;;;1.20;;
8735;SDS011;4404;49.308;12.178;2023-07-31T09:10:21;4.60;;;2.00;;
8735;SDS011;4404;49.308;12.178;2023-07-31T09:12:25;6.70;;;2.43;;
8735;SDS011;4404;49.308;12.178;2023-07-31T09:14:27;5.67;;;2.10;;
8735;SDS011;4404;49.308;12.178;2023-07-31T09:16:29;6.17;;;2.03;;
8735;SDS011;4404;49.308;12.178;2023-07-31T09:18:32;6.93;;;2.23;;
8735;SDS011;4404;49.308;12.178;2023-07-31T09:21:01;2.83;;;1.50;;
8735;SDS011;4404;49.308;12.178;2023-07-31T09:23:06;2.00;;;1.27;;
8735;SDS011;4404;49.308;12.178;2023-07-31T09:25:15;4.97;;;1.77;;
8735;SDS011;4404;49.308;12.178;2023-07-31T09:27:18;6.30;;;2.00;;
8735;SDS011;4404;49.308;12.178;2023-07-31T09:29:20;6.70;;;1.93;;
8735;SDS011;4404;49.308;12.178;2023-07-31T09:31:31;6.37;;;1.90;;
8735;SDS011;4404;49.308;12.178;2023-07-31T09:33:34;10.13;;;2.57;;
8735;SDS011;4404;49.308;12.178;2023-07-31T09:35:58;4.97;;;1.70;;
8735;SDS011;4404;49.308;12.178;2023-07-31T09:38:03;4.87;;;1.60;;
8735;SDS011;4404;49.308;12.178;2023-07-31T09:40:10;9.07;;;2.33;;
8735;SDS011;4404;49.308;12.178;2023-07-31T09:42:27;3.67;;;1.63;;
8735;SDS011;4404;49.308;12.178;2023-07-31T09:44:37;2.83;;;1.43;;
8735;SDS011;4404;49.308;12.178;2023-07-31T09:46:40;8.87;;;2.43;;
8735;SDS011;4404;49.308;12.178;2023-07-31T09:48:43;4.27;;;1.97;;
8735;SDS011;4404;49.308;12.178;2023-07-31T09:50:46;12.17;;;3.00;;
8735;SDS011;4404;49.308;12.178;2023-07-31T09:52:50;11.10;;;2.97;;
8735;SDS011;4404;49.308;12.178;2023-07-31T09:54:56;8.17;;;2.30;;
8735;SDS011;4404;49.308;12.178;2023-07-31T09:56:57;9.20;;;2.50;;
8735;SDS011;4404;49.308;12.178;2023-07-31T09:59:01;18.50;;;4.47;;
8735;SDS011;4404;49.308;12.178;2023-07-31T10:01:05;6.67;;;2.07;;
8735;SDS011;4404;49.308;12.178;2023-07-31T10:03:08;2.45;;;1.42;;
8735;SDS011;4404;49.308;12.178;2023-07-31T10:05:12;3.57;;;1.83;;
8735;SDS011;4404;49.308;12.178;2023-07-31T10:07:15;5.23;;;1.83;;
8735;SDS011;4404;49.308;12.178;2023-07-31T10:09:20;7.78;;;2.25;;
8735;SDS011;4404;49.308;12.178;2023-07-31T10:11:26;5.70;;;1.83;;
8735;SDS011;4404;49.308;12.178;2023-07-31T10:13:31;8.57;;;2.43;;
8735;SDS011;4404;49.308;12.178;2023-07-31T10:15:34;7.63;;;2.30;;
8735;SDS011;4404;49.308;12.178;2023-07-31T10:17:37;11.63;;;3.20;;
8735;SDS011;4404;49.308;12.178;2023-07-31T10:19:39;17.47;;;4.53;;
8735;SDS011;4404;49.308;12.178;2023-07-31T10:21:42;5.78;;;1.88;;
8735;SDS011;4404;49.308;12.178;2023-07-31T10:23:44;11.25;;;2.78;;
8735;SDS011;4404;49.308;12.178;2023-07-31T10:25:49;11.63;;;2.85;;
8735;SDS011;4404;49.308;12.178;2023-07-31T10:27:54;10.23;;;2.53;;
8735;SDS011;4404;49.308;12.178;2023-07-31T10:30:03;7.00;;;1.95;;
8735;SDS011;4404;49.308;12.178;2023-07-31T10:32:07;10.05;;;2.40;;
8735;SDS011;4404;49.308;12.178;2023-07-31T10:34:12;6.07;;;1.70;;
8735;SDS011;4404;49.308;12.178;2023-07-31T10:36:15;5.05;;;1.55;;
8735;SDS011;4404;49.308;12.178;2023-07-31T10:38:19;8.68;;;2.28;;
8735;SDS011;4404;49.308;12.178;2023-07-31T10:40:25;5.85;;;1.73;;
8735;SDS011;4404;49.308;12.178;2023-07-31T10:42:32;5.45;;;1.83;;
8735;SDS011;4404;49.308;12.178;2023-07-31T10:44:37;11.70;;;2.97;;
8735;SDS011;4404;49.308;12.178;2023-07-31T10:46:40;6.60;;;1.92;;
8735;SDS011;4404;49.308;12.178;2023-07-31T10:48:42;7.20;;;1.98;;
8735;SDS011;4404;49.308;12.178;2023-07-31T10:50:48;9.35;;;2.47;;
8735;SDS011;4404;49.308;12.178;2023-07-31T10:52:51;10.80;;;2.70;;
8735;SDS011;4404;49.308;12.178;2023-07-31T10:57:19;9.18;;;2.60;;
8735;SDS011;4404;49.308;12.178;2023-07-31T10:59:26;3.58;;;1.42;;
8735;SDS011;4404;49.308;12.178;2023-07-31T11:03:56;5.03;;;1.75;;
8735;SDS011;4404;49.308;12.178;2023-07-31T11:06:01;4.60;;;1.48;;
8735;SDS011;4404;49.308;12.178;2023-07-31T11:08:09;4.75;;;1.80;;
8735;SDS011;4404;49.308;12.178;2023-07-31T11:10:14;5.40;;;1.77;;
8735;SDS011;4404;49.308;12.178;2023-07-31T11:12:18;3.80;;;1.50;;
8735;SDS011;4404;49.308;12.178;2023-07-31T11:14:21;3.75;;;1.40;;
8735;SDS011;4404;49.308;12.178;2023-07-31T11:16:23;4.68;;;1.60;;
8735;SDS011;4404;49.308;12.178;2023-07-31T11:18:28;7.18;;;2.00;;
8735;SDS011;4404;49.308;12.178;2023-07-31T11:20:29;5.55;;;1.77;;
8735;SDS011;4404;49.308;12.178;2023-07-31T11:22:32;5.90;;;1.88;;
8735;SDS011;4404;49.308;12.178;2023-07-31T11:24:35;11.73;;;2.95;;
8735;SDS011;4404;49.308;12.178;2023-07-31T11:26:37;8.63;;;2.35;;
8735;SDS011;4404;49.308;12.178;2023-07-31T11:28:41;7.80;;;2.40;;
8735;SDS011;4404;49.308;12.178;2023-07-31T11:30:44;5.88;;;2.13;;
8735;SDS011;4404;49.308;12.178;2023-07-31T11:32:47;5.63;;;2.13;;
8735;SDS011;4404;49.308;12.178;2023-07-31T11:34:53;5.35;;;1.77;;
8735;SDS011;4404;49.308;12.178;2023-07-31T11:36:56;4.88;;;2.10;;
8735;SDS011;4404;49.308;12.178;2023-07-31T11:39:04;6.47;;;2.15;;
8735;SDS011;4404;49.308;12.178;2023-07-31T11:41:06;6.97;;;2.10;;
8735;SDS011;4404;49.308;12.178;2023-07-31T11:43:09;6.00;;;1.73;;
8735;SDS011;4404;49.308;12.178;2023-07-31T11:45:16;4.57;;;1.65;;
8735;SDS011;4404;49.308;12.178;2023-07-31T11:47:18;2.97;;;1.52;;
8735;SDS011;4404;49.308;12.178;2023-07-31T11:49:21;2.97;;;1.55;;
8735;SDS011;4404;49.308;12.178;2023-07-31T11:51:25;2.17;;;1.35;;
8735;SDS011;4404;49.308;12.178;2023-07-31T11:53:30;4.45;;;2.05;;
8735;SDS011;4404;49.308;12.178;2023-07-31T11:55:35;4.47;;;2.08;;
8735;SDS011;4404;49.308;12.178;2023-07-31T11:57:38;4.65;;;2.38;;
8735;SDS011;4404;49.308;12.178;2023-07-31T11:59:43;3.70;;;1.90;;
8735;SDS011;4404;49.308;12.178;2023-07-31T12:01:45;3.92;;;1.92;;
8735;SDS011;4404;49.308;12.178;2023-07-31T12:03:50;3.10;;;1.63;;
8735;SDS011;4404;49.308;12.178;2023-07-31T12:05:53;1.70;;;1.15;;
8735;SDS011;4404;49.308;12.178;2023-07-31T12:07:57;1.55;;;1.05;;
8735;SDS011;4404;49.308;12.178;2023-07-31T12:10:00;1.80;;;1.15;;
8735;SDS011;4404;49.308;12.178;2023-07-31T12:12:05;4.53;;;1.52;;
8735;SDS011;4404;49.308;12.178;2023-07-31T12:14:18;5.65;;;1.83;;
8735;SDS011;4404;49.308;12.178;2023-07-31T12:16:25;4.18;;;1.65;;
8735;SDS011;4404;49.308;12.178;2023-07-31T12:18:29;7.38;;;2.17;;
8735;SDS011;4404;49.308;12.178;2023-07-31T12:20:34;8.02;;;2.47;;
8735;SDS011;4404;49.308;12.178;2023-07-31T12:22:36;10.43;;;2.92;;
8735;SDS011;4404;49.308;12.178;2023-07-31T12:24:41;12.52;;;3.83;;
8735;SDS011;4404;49.308;12.178;2023-07-31T12:26:45;10.05;;;2.78;;
8735;SDS011;4404;49.308;12.178;2023-07-31T12:28:48;8.05;;;2.40;;
8735;SDS011;4404;49.308;12.178;2023-07-31T12:30:52;8.05;;;2.33;;
8735;SDS011;4404;49.308;12.178;2023-07-31T12:33:02;6.10;;;1.88;;
8735;SDS011;4404;49.308;12.178;2023-07-31T12:35:06;5.82;;;1.85;;
8735;SDS011;4404;49.308;12.178;2023-07-31T12:37:09;7.00;;;1.98;;
8735;SDS011;4404;49.308;12.178;2023-07-31T12:39:12;11.45;;;3.00;;
8735;SDS011;4404;49.308;12.178;2023-07-31T12:41:17;11.32;;;2.90;;
8735;SDS011;4404;49.308;12.178;2023-07-31T12:43:19;7.68;;;2.25;;
8735;SDS011;4404;49.308;12.178;2023-07-31T12:45:22;9.77;;;2.78;;
8735;SDS011;4404;49.308;12.178;2023-07-31T12:47:24;6.38;;;1.85;;
8735;SDS011;4404;49.308;12.178;2023-07-31T12:49:26;10.18;;;2.72;;
8735;SDS011;4404;49.308;12.178;2023-07-31T12:51:29;8.18;;;2.45;;
8735;SDS011;4404;49.308;12.178;2023-07-31T12:53:31;19.70;;;5.15;;
8735;SDS011;4404;49.308;12.178;2023-07-31T12:55:33;6.25;;;2.00;;
8735;SDS011;4404;49.308;12.178;2023-07-31T12:57:39;11.07;;;3.28;;
8735;SDS011;4404;49.308;12.178;2023-07-31T12:59:42;15.07;;;3.85;;
8735;SDS011;4404;49.308;12.178;2023-07-31T13:01:44;7.18;;;2.15;;
8735;SDS011;4404;49.308;12.178;2023-07-31T13:03:46;9.38;;;2.65;;
8735;SDS011;4404;49.308;12.178;2023-07-31T13:05:48;7.43;;;2.17;;
8735;SDS011;4404;49.308;12.178;2023-07-31T13:07:50;6.15;;;2.00;;
8735;SDS011;4404;49.308;12.178;2023-07-31T13:09:52;6.50;;;2.15;;
8735;SDS011;4404;49.308;12.178;2023-07-31T13:11:54;3.35;;;1.67;;
8735;SDS011;4404;49.308;12.178;2023-07-31T13:13:58;8.93;;;2.50;;
8735;SDS011;4404;49.308;12.178;2023-07-31T13:16:00;2.40;;;1.05;;
8735;SDS011;4404;49.308;12.178;2023-07-31T13:18:03;5.15;;;1.50;;
8735;SDS011;4404;49.308;12.178;2023-07-31T13:20:05;4.93;;;1.73;;
8735;SDS011;4404;49.308;12.178;2023-07-31T13:22:09;3.88;;;1.50;;
8735;SDS011;4404;49.308;12.178;2023-07-31T13:24:11;2.17;;;1.00;;
8735;SDS011;4404;49.308;12.178;2023-07-31T13:26:13;5.10;;;1.70;;
8735;SDS011;4404;49.308;12.178;2023-07-31T13:28:15;0.85;;;0.82;;
8735;SDS011;4404;49.308;12.178;2023-07-31T13:30:18;0.80;;;0.80;;
8735;SDS011;4404;49.308;12.178;2023-07-31T13:32:21;0.82;;;0.82;;
8735;SDS011;4404;49.308;12.178;2023-07-31T13:34:23;0.70;;;0.70;;
8735;SDS011;4404;49.308;12.178;2023-07-31T13:36:24;0.80;;;0.80;;
8735;SDS011;4404;49.308;12.178;2023-07-31T13:38:26;1.33;;;1.02;;
8735;SDS011;4404;49.308;12.178;2023-07-31T13:40:28;2.10;;;1.30;;
8735;SDS011;4404;49.308;12.178;2023-07-31T13:42:30;1.33;;;1.10;;
8735;SDS011;4404;49.308;12.178;2023-07-31T13:44:32;1.33;;;1.05;;
8735;SDS011;4404;49.308;12.178;2023-07-31T13:46:36;1.70;;;1.27;;
8735;SDS011;4404;49.308;12.178;2023-07-31T13:48:38;1.42;;;1.25;;
8735;SDS011;4404;49.308;12.178;2023-07-31T13:50:40;2.53;;;1.52;;
8735;SDS011;4404;49.308;12.178;2023-07-31T13:52:41;1.70;;;1.27;;
8735;SDS011;4404;49.308;12.178;2023-07-31T13:54:43;1.77;;;1.30;;
8735;SDS011;4404;49.308;12.178;2023-07-31T13:56:45;1.58;;;1.33;;
8735;SDS011;4404;49.308;12.178;2023-07-31T13:58:48;1.55;;;1.20;;
8735;SDS011;4404;49.308;12.178;2023-07-31T14:00:50;1.85;;;1.20;;
8735;SDS011;4404;49.308;12.178;2023-07-31T14:02:53;1.40;;;1.05;;
8735;SDS011;4404;49.308;12.178;2023-07-31T14:04:55;1.35;;;1.02;;
8735;SDS011;4404;49.308;12.178;2023-07-31T14:06:57;1.48;;;1.02;;
8735;SDS011;4404;49.308;12.178;2023-07-31T14:08:59;0.65;;;0.65;;
8735;SDS011;4404;49.308;12.178;2023-07-31T14:11:02;1.23;;;0.90;;
8735;SDS011;4404;49.308;12.178;2023-07-31T14:13:04;1.17;;;1.08;;
8735;SDS011;4404;49.308;12.178;2023-07-31T14:15:07;1.02;;;0.90;;
8735;SDS011;4404;49.308;12.178;2023-07-31T14:17:10;1.35;;;1.10;;
8735;SDS011;4404;49.308;12.178;2023-07-31T14:19:13;0.73;;;0.73;;
8735;SDS011;4404;49.308;12.178;2023-07-31T14:21:15;1.00;;;0.90;;
8735;SDS011;4404;49.308;12.178;2023-07-31T14:23:19;1.10;;;1.00;;
8735;SDS011;4404;49.308;12.178;2023-07-31T14:25:21;0.77;;;0.77;;
8735;SDS011;4404;49.308;12.178;2023-07-31T14:27:24;1.00;;;0.90;;
8735;SDS011;4404;49.308;12.178;2023-07-31T14:29:26;0.93;;;0.90;;
8735;SDS011;4404;49.308;12.178;2023-07-31T14:31:28;0.80;;;0.80;;
8735;SDS011;4404;49.308;12.178;2023-07-31T14:33:30;1.00;;;0.90;;
8735;SDS011;4404;49.308;12.178;2023-07-31T14:35:34;1.02;;;0.93;;
8735;SDS011;4404;49.308;12.178;2023-07-31T14:37:37;1.55;;;1.27;;
8735;SDS011;4404;49.308;12.178;2023-07-31T14:39:40;2.05;;;1.42;;
8735;SDS011;4404;49.308;12.178;2023-07-31T14:41:43;1.73;;;1.33;;
8735;SDS011;4404;49.308;12.178;2023-07-31T14:43:46;1.60;;;1.38;;
8735;SDS011;4404;49.308;12.178;2023-07-31T14:45:48;1.52;;;1.20;;
8735;SDS011;4404;49.308;12.178;2023-07-31T14:47:51;1.20;;;1.10;;
8735;SDS011;4404;49.308;12.178;2023-07-31T14:49:53;1.60;;;1.30;;
8735;SDS011;4404;49.308;12.178;2023-07-31T14:51:57;1.05;;;0.93;;
8735;SDS011;4404;49.308;12.178;2023-07-31T14:53:59;1.20;;;0.98;;
8735;SDS011;4404;49.308;12.178;2023-07-31T14:56:01;1.35;;;1.10;;
8735;SDS011;4404;49.308;12.178;2023-07-31T14:58:03;0.70;;;0.70;;
8735;SDS011;4404;49.308;12.178;2023-07-31T15:00:06;1.13;;;1.00;;
8735;SDS011;4404;49.308;12.178;2023-07-31T15:02:10;1.20;;;1.10;;
8735;SDS011;4404;49.308;12.178;2023-07-31T15:04:13;0.95;;;0.85;;
8735;SDS011;4404;49.308;12.178;2023-07-31T15:06:15;0.90;;;0.85;;
8735;SDS011;4404;49.308;12.178;2023-07-31T15:08:18;1.00;;;0.90;;
8735;SDS011;4404;49.308;12.178;2023-07-31T15:10:20;0.80;;;0.80;;
8735;SDS011;4404;49.308;12.178;2023-07-31T15:12:23;0.73;;;0.73;;
8735;SDS011;4404;49.308;12.178;2023-07-31T15:14:25;1.33;;;1.02;;
8735;SDS011;4404;49.308;12.178;2023-07-31T15:16:28;0.80;;;0.80;;
8735;SDS011;4404;49.308;12.178;2023-07-31T15:18:32;0.98;;;0.90;;
8735;SDS011;4404;49.308;12.178;2023-07-31T15:20:33;1.65;;;1.25;;
8735;SDS011;4404;49.308;12.178;2023-07-31T15:22:35;1.20;;;1.10;;
8735;SDS011;4404;49.308;12.178;2023-07-31T15:24:38;1.70;;;1.30;;
8735;SDS011;4404;49.308;12.178;2023-07-31T15:26:41;1.42;;;1.10;;
8735;SDS011;4404;49.308;12.178;2023-07-31T15:28:46;2.13;;;1.45;;
8735;SDS011;4404;49.308;12.178;2023-07-31T15:30:50;1.55;;;1.15;;
8735;SDS011;4404;49.308;12.178;2023-07-31T15:32:52;2.03;;;1.48;;
8735;SDS011;4404;49.308;12.178;2023-07-31T15:34:54;1.15;;;1.05;;
8735;SDS011;4404;49.308;12.178;2023-07-31T15:36:56;1.25;;;1.10;;
8735;SDS011;4404;49.308;12.178;2023-07-31T15:38:58;1.63;;;1.20;;
8735;SDS011;4404;49.308;12.178;2023-07-31T15:41:02;1.00;;;0.90;;
8735;SDS011;4404;49.308;12.178;2023-07-31T15:43:04;1.10;;;1.00;;
8735;SDS011;4404;49.308;12.178;2023-07-31T15:45:07;1.45;;;1.15;;
8735;SDS011;4404;49.308;12.178;2023-07-31T15:47:10;1.90;;;1.30;;
8735;SDS011;4404;49.308;12.178;2023-07-31T15:49:12;2.10;;;1.48;;
8735;SDS011;4404;49.308;12.178;2023-07-31T15:51:13;1.80;;;1.30;;
8735;SDS011;4404;49.308;12.178;2023-07-31T15:53:16;1.85;;;1.40;;
8735;SDS011;4404;49.308;12.178;2023-07-31T15:55:18;1.95;;;1.33;;
8735;SDS011;4404;49.308;12.178;2023-07-31T15:57:23;1.23;;;1.00;;
8735;SDS011;4404;49.308;12.178;2023-07-31T15:59:25;1.70;;;1.20;;
8735;SDS011;4404;49.308;12.178;2023-07-31T16:01:27;0.93;;;0.82;;
8735;SDS011;4404;49.308;12.178;2023-07-31T16:03:30;1.08;;;0.93;;
8735;SDS011;4404;49.308;12.178;2023-07-31T16:05:32;1.27;;;0.98;;
8735;SDS011;4404;49.308;12.178;2023-07-31T16:07:34;1.15;;;1.08;;
8735;SDS011;4404;49.308;12.178;2023-07-31T16:09:37;4.05;;;2.17;;
8735;SDS011;4404;49.308;12.178;2023-07-31T16:11:39;3.85;;;2.47;;
8735;SDS011;4404;49.308;12.178;2023-07-31T16:13:46;4.50;;;2.85;;
8735;SDS011;4404;49.308;12.178;2023-07-31T16:15:47;3.47;;;2.28;;
8735;SDS011;4404;49.308;12.178;2023-07-31T16:17:49;2.45;;;1.73;;
8735;SDS011;4404;49.308;12.178;2023-07-31T16:19:53;1.55;;;1.25;;
8735;SDS011;4404;49.308;12.178;2023-07-31T16:21:55;1.95;;;1.38;;
8735;SDS011;4404;49.308;12.178;2023-07-31T16:23:58;1.02;;;0.93;;
8735;SDS011;4404;49.308;12.178;2023-07-31T16:26:01;2.78;;;1.40;;
8735;SDS011;4404;49.308;12.178;2023-07-31T16:28:02;2.40;;;1.45;;
8735;SDS011;4404;49.308;12.178;2023-07-31T16:30:06;1.75;;;1.30;;
8735;SDS011;4404;49.308;12.178;2023-07-31T16:32:10;2.90;;;1.52;;
8735;SDS011;4404;49.308;12.178;2023-07-31T16:34:12;3.47;;;1.92;;
8735;SDS011;4404;49.308;12.178;2023-07-31T16:36:13;4.35;;;2.17;;
8735;SDS011;4404;49.308;12.178;2023-07-31T16:38:18;2.88;;;1.63;;
8735;SDS011;4404;49.308;12.178;2023-07-31T16:40:20;2.80;;;1.52;;
8735;SDS011;4404;49.308;12.178;2023-07-31T16:42:22;2.13;;;1.35;;
8735;SDS011;4404;49.308;12.178;2023-07-31T16:44:24;1.98;;;1.30;;
8735;SDS011;4404;49.308;12.178;2023-07-31T16:46:28;1.67;;;1.15;;
8735;SDS011;4404;49.308;12.178;2023-07-31T16:48:31;3.22;;;1.80;;
8735;SDS011;4404;49.308;12.178;2023-07-31T16:50:34;2.60;;;1.55;;
8735;SDS011;4404;49.308;12.178;2023-07-31T16:52:36;4.25;;;2.42;;
8735;SDS011;4404;49.308;12.178;2023-07-31T16:54:38;3.85;;;2.05;;
8735;SDS011;4404;49.308;12.178;2023-07-31T16:56:40;3.58;;;2.20;;
8735;SDS011;4404;49.308;12.178;2023-07-31T16:58:43;2.72;;;1.67;;
8735;SDS011;4404;49.308;12.178;2023-07-31T17:00:45;3.85;;;2.08;;
8735;SDS011;4404;49.308;12.178;2023-07-31T17:02:48;7.97;;;3.17;;
8735;SDS011;4404;49.308;12.178;2023-07-31T17:04:51;4.55;;;1.90;;
8735;SDS011;4404;49.308;12.178;2023-07-31T17:06:53;6.47;;;2.42;;
8735;SDS011;4404;49.308;12.178;2023-07-31T17:08:55;5.82;;;2.00;;
8735;SDS011;4404;49.308;12.178;2023-07-31T17:10:57;1.35;;;0.80;;
8735;SDS011;4404;49.308;12.178;2023-07-31T17:12:59;3.15;;;1.33;;
8735;SDS011;4404;49.308;12.178;2023-07-31T17:15:01;4.70;;;1.75;;
8735;SDS011;4404;49.308;12.178;2023-07-31T17:17:04;2.53;;;1.05;;
8735;SDS011;4404;49.308;12.178;2023-07-31T17:19:08;3.08;;;1.25;;
8735;SDS011;4404;49.308;12.178;2023-07-31T17:21:10;3.45;;;1.50;;
8735;SDS011;4404;49.308;12.178;2023-07-31T17:23:13;6.68;;;2.47;;
8735;SDS011;4404;49.308;12.178;2023-07-31T17:25:16;4.05;;;1.75;;
8735;SDS011;4404;49.308;12.178;2023-07-31T17:27:19;6.72;;;2.55;;
8735;SDS011;4404;49.308;12.178;2023-07-31T17:29:27;4.57;;;1.85;;
8735;SDS011;4404;49.308;12.178;2023-07-31T17:31:30;6.70;;;2.28;;
8735;SDS011;4404;49.308;12.178;2023-07-31T17:33:34;8.07;;;2.72;;
8735;SDS011;4404;49.308;12.178;2023-07-31T17:35:39;7.70;;;2.53;;
8735;SDS011;4404;49.308;12.178;2023-07-31T17:37:42;9.07;;;2.92;;
8735;SDS011;4404;49.308;12.178;2023-07-31T17:39:43;8.48;;;2.83;;
8735;SDS011;4404;49.308;12.178;2023-07-31T17:41:45;6.82;;;2.45;;
8735;SDS011;4404;49.308;12.178;2023-07-31T17:43:47;8.27;;;2.78;;
8735;SDS011;4404;49.308;12.178;2023-07-31T17:45:49;6.80;;;2.42;;
8735;SDS011;4404;49.308;12.178;2023-07-31T17:47:53;3.72;;;1.52;;
8735;SDS011;4404;49.308;12.178;2023-07-31T17:49:55;6.75;;;2.25;;
8735;SDS011;4404;49.308;12.178;2023-07-31T17:51:59;3.17;;;1.40;;
8735;SDS011;4404;49.308;12.178;2023-07-31T17:54:04;4.47;;;1.65;;
8735;SDS011;4404;49.308;12.178;2023-07-31T17:56:08;5.32;;;2.00;;
8735;SDS011;4404;49.308;12.178;2023-07-31T17:58:17;4.90;;;1.85;;
8735;SDS011;4404;49.308;12.178;2023-07-31T18:00:28;5.72;;;2.22;;
8735;SDS011;4404;49.308;12.178;2023-07-31T18:02:35;4.22;;;1.65;;
8735;SDS011;4404;49.308;12.178;2023-07-31T18:04:41;7.60;;;2.50;;
8735;SDS011;4404;49.308;12.178;2023-07-31T18:06:55;4.28;;;1.75;;
8735;SDS011;4404;49.308;12.178;2023-07-31T18:08:58;8.98;;;2.92;;
8735;SDS011;4404;49.308;12.178;2023-07-31T18:11:00;3.97;;;1.67;;